< < Back
Terminal Aerodrome Forecast


Current Version              Previous Versions:   1  2  3  4  5  6  7  8  9  

Terminal Aerodrome Forecast

148
FTUS42 KFFC 250348 AAA
TAFFTY
TAF AMD
KFTY 250348Z 2504/2524 VRB03KT P6SM SCT150
     FM251500 VRB03KT P6SM SCT040
     FM251700 07004KT P6SM BKN050=

Latest METAR

995
SAUS70 KWBC 250756
MTRFTY
METAR KFTY 250753Z 00000KT 10SM CLR 22/21 A3017 RMK AO2 SLP209
T02170206


USA.gov is the U.S. government's official web portal to all federal, state and local government web resources and services.